createdAt,value
2022-08-17T00:33:42.401Z,100916.56
2022-08-17T00:44:05.603Z,100926.50
2022-08-17T00:54:41.828Z,100911.75
2022-08-17T01:05:07.627Z,100911.91
2022-08-17T01:15:34.924Z,100913.22
2022-08-17T01:25:58.696Z,100913.72
2022-08-17T01:36:21.036Z,100905.91
2022-08-17T01:46:42.625Z,100900.28
2022-08-17T01:57:04.537Z,100887.09
2022-08-17T02:07:27.125Z,100884.94
2022-08-17T02:17:49.135Z,100882.16
2022-08-17T02:28:17.679Z,100870.69
2022-08-17T02:38:40.613Z,100875.50
2022-08-17T02:49:02.215Z,100871.31
2022-08-17T02:59:24.369Z,100872.94
2022-08-17T03:09:45.958Z,100872.25
2022-08-17T03:20:08.785Z,100870.16
2022-08-17T03:30:30.459Z,100864.97
2022-08-17T03:40:59.056Z,100866.66
2022-08-17T03:51:42.268Z,100883.16
2022-08-17T04:02:11.462Z,100886.69
2022-08-17T04:12:49.724Z,100890.59
2022-08-17T04:23:17.635Z,100888.44
2022-08-17T04:33:44.106Z,100891.09
2022-08-17T04:44:05.630Z,100896.19
2022-08-17T04:54:27.235Z,100907.88
2022-08-17T05:04:48.743Z,100918.41
2022-08-17T05:15:14.267Z,100921.56
2022-08-17T05:25:39.488Z,100933.41
2022-08-17T05:36:04.221Z,100927.69
2022-08-17T05:46:28.816Z,100927.84
2022-08-17T05:56:53.209Z,100917.41
2022-08-17T06:07:25.840Z,100921.03
2022-08-17T06:17:47.497Z,100922.72
2022-08-17T06:28:14.672Z,100926.19
2022-08-17T06:38:47.425Z,100933.19
2022-08-17T06:49:21.924Z,100939.59
2022-08-17T06:59:56.145Z,100933.31
2022-08-17T07:10:20.311Z,100922.28
2022-08-17T07:20:47.997Z,100923.34
2022-08-17T07:31:13.264Z,100927.84
2022-08-17T07:41:57.632Z,100942.63
2022-08-17T07:52:50.594Z,100943.47
2022-08-17T08:03:23.725Z,100980.56
2022-08-17T08:13:49.888Z,100970.59
2022-08-17T08:24:41.013Z,100978.72
2022-08-17T08:35:13.574Z,100981.56
2022-08-17T08:45:56.434Z,100972.34
2022-08-17T08:56:29.633Z,100976.59
2022-08-17T09:07:16.251Z,100981.84
2022-08-17T09:18:14.939Z,100973.13
2022-08-17T09:28:44.778Z,100972.44
2022-08-17T09:39:12.415Z,100963.22
2022-08-17T09:49:42.694Z,100963.84
2022-08-17T10:00:29.291Z,100968.56
2022-08-17T10:11:13.883Z,100972.41
2022-08-17T10:22:00.841Z,100963.44
2022-08-17T10:32:39.738Z,100970.91
2022-08-17T10:43:22.908Z,100965.44
2022-08-17T10:53:46.110Z,100962.22
2022-08-17T11:04:27.261Z,100959.75
2022-08-17T11:15:04.425Z,100942.66
2022-08-17T11:25:40.593Z,100941.66
2022-08-17T11:36:14.370Z,100934.75
2022-08-17T11:47:12.865Z,100932.38
2022-08-17T11:57:40.547Z,100919.03
2022-08-17T12:08:19.998Z,100909.31
2022-08-17T12:18:53.779Z,100904.81
2022-08-17T12:29:18.075Z,100900.47
2022-08-17T12:40:03.866Z,100894.31
2022-08-17T12:50:29.144Z,100888.31
2022-08-17T13:01:00.164Z,100877.41
2022-08-17T13:11:24.802Z,100866.06
2022-08-17T13:21:58.581Z,100861.53
2022-08-17T13:32:33.484Z,100854.72
2022-08-17T13:42:56.500Z,100854.50
2022-08-17T13:53:24.054Z,100850.78
2022-08-17T14:03:46.013Z,100850.81
2022-08-17T14:14:14.433Z,100846.69
2022-08-17T14:24:44.611Z,100837.84
2022-08-17T14:35:09.028Z,100814.97
2022-08-17T14:45:33.253Z,100766.75
2022-08-17T14:55:55.176Z,100799.22
2022-08-17T15:06:17.248Z,100867.72
2022-08-17T15:16:39.035Z,100947.91
2022-08-17T15:27:00.568Z,100866.47
2022-08-17T15:37:22.377Z,100859.09
2022-08-17T15:47:44.013Z,100860.13
2022-08-17T15:58:06.359Z,100863.81
2022-08-17T16:08:28.829Z,100833.34
2022-08-17T16:18:53.610Z,100794.69
2022-08-17T16:29:17.888Z,100792.09
2022-08-17T16:39:39.840Z,100789.97
2022-08-17T16:50:03.836Z,100794.03
2022-08-17T17:00:25.418Z,100815.34
2022-08-17T17:10:50.761Z,100803.56
2022-08-17T17:21:25.355Z,100798.81
2022-08-17T17:32:13.743Z,100773.97
2022-08-17T17:42:42.632Z,100788.09
2022-08-17T17:53:34.986Z,100825.44
2022-08-17T18:04:21.595Z,100847.81
2022-08-17T18:14:46.173Z,100846.53
2022-08-17T18:25:44.795Z,100857.81
2022-08-17T18:36:07.092Z,100861.44
2022-08-17T18:46:35.128Z,100846.19
2022-08-17T18:57:00.287Z,100848.88
2022-08-17T19:07:25.073Z,100877.59
2022-08-17T19:18:00.148Z,100883.88
2022-08-17T19:28:36.836Z,100890.69
2022-08-17T19:39:38.403Z,100883.72
2022-08-17T19:50:12.078Z,100889.03
2022-08-17T20:00:39.597Z,100879.44
2022-08-17T20:11:09.159Z,100887.19
2022-08-17T20:21:45.938Z,100879.44
2022-08-17T20:32:22.468Z,100893.50
2022-08-17T20:42:44.068Z,100911.22
2022-08-17T20:53:09.962Z,100905.56
2022-08-17T21:03:39.985Z,100913.06
2022-08-17T21:14:38.005Z,100916.88
2022-08-17T21:25:14.724Z,100912.25
2022-08-17T21:36:17.725Z,100903.28
2022-08-17T21:46:42.960Z,100891.00
2022-08-17T21:57:17.485Z,100902.47
2022-08-17T22:07:47.741Z,100893.31
2022-08-17T22:18:21.925Z,100885.22
2022-08-17T22:28:47.470Z,100891.78
2022-08-17T22:39:08.930Z,100884.69
2022-08-17T22:49:56.452Z,100885.03
2022-08-17T23:00:49.098Z,100889.81
2022-08-17T23:11:10.627Z,100920.50
2022-08-17T23:21:32.214Z,100942.88
2022-08-17T23:32:01.204Z,100940.75
2022-08-17T23:42:23.175Z,100942.41
2022-08-17T23:52:46.653Z,100951.03
